sensor_id;sensor_type;location;lat;lon;timestamp;P1;durP1;ratioP1;P2;durP2;ratioP2
71091;SDS011;58751;50.708;7.134;2024-03-08T00:01:28;19.97;;;15.93;;
71091;SDS011;58751;50.708;7.134;2024-03-08T00:03:53;21.73;;;16.20;;
71091;SDS011;58751;50.708;7.134;2024-03-08T00:06:19;18.63;;;16.13;;
71091;SDS011;58751;50.708;7.134;2024-03-08T00:08:44;18.60;;;16.17;;
71091;SDS011;58751;50.708;7.134;2024-03-08T00:11:11;22.00;;;16.57;;
71091;SDS011;58751;50.708;7.134;2024-03-08T00:13:36;20.98;;;17.13;;
71091;SDS011;58751;50.708;7.134;2024-03-08T00:16:02;23.10;;;17.80;;
71091;SDS011;58751;50.708;7.134;2024-03-08T00:18:27;20.20;;;17.03;;
71091;SDS011;58751;50.708;7.134;2024-03-08T00:20:53;21.10;;;16.27;;
71091;SDS011;58751;50.708;7.134;2024-03-08T00:23:18;22.73;;;17.00;;
71091;SDS011;58751;50.708;7.134;2024-03-08T00:25:43;23.53;;;18.00;;
71091;SDS011;58751;50.708;7.134;2024-03-08T00:28:10;19.63;;;16.50;;
71091;SDS011;58751;50.708;7.134;2024-03-08T00:30:35;24.70;;;17.58;;
71091;SDS011;58751;50.708;7.134;2024-03-08T00:33:01;26.80;;;17.27;;
71091;SDS011;58751;50.708;7.134;2024-03-08T00:35:26;22.80;;;17.23;;
71091;SDS011;58751;50.708;7.134;2024-03-08T00:37:51;19.33;;;15.57;;
71091;SDS011;58751;50.708;7.134;2024-03-08T00:40:17;26.27;;;17.80;;
71091;SDS011;58751;50.708;7.134;2024-03-08T00:42:42;21.80;;;16.70;;
71091;SDS011;58751;50.708;7.134;2024-03-08T00:45:09;24.90;;;17.50;;
71091;SDS011;58751;50.708;7.134;2024-03-08T00:47:35;20.63;;;16.92;;
71091;SDS011;58751;50.708;7.134;2024-03-08T00:50:00;21.20;;;17.43;;
71091;SDS011;58751;50.708;7.134;2024-03-08T00:52:26;22.90;;;17.60;;
71091;SDS011;58751;50.708;7.134;2024-03-08T00:54:51;19.63;;;15.70;;
71091;SDS011;58751;50.708;7.134;2024-03-08T00:57:16;22.60;;;16.20;;
71091;SDS011;58751;50.708;7.134;2024-03-08T00:59:42;21.90;;;17.73;;
71091;SDS011;58751;50.708;7.134;2024-03-08T01:02:09;21.23;;;16.87;;
71091;SDS011;58751;50.708;7.134;2024-03-08T01:04:35;22.58;;;17.15;;
71091;SDS011;58751;50.708;7.134;2024-03-08T01:07:00;18.20;;;15.87;;
71091;SDS011;58751;50.708;7.134;2024-03-08T01:09:25;20.97;;;15.17;;
71091;SDS011;58751;50.708;7.134;2024-03-08T01:11:51;20.73;;;16.87;;
71091;SDS011;58751;50.708;7.134;2024-03-08T01:14:16;22.90;;;16.37;;
71091;SDS011;58751;50.708;7.134;2024-03-08T01:16:42;19.37;;;15.90;;
71091;SDS011;58751;50.708;7.134;2024-03-08T01:19:08;23.33;;;16.87;;
71091;SDS011;58751;50.708;7.134;2024-03-08T01:21:34;24.73;;;17.65;;
71091;SDS011;58751;50.708;7.134;2024-03-08T01:23:59;21.37;;;16.40;;
71091;SDS011;58751;50.708;7.134;2024-03-08T01:26:25;21.70;;;15.23;;
71091;SDS011;58751;50.708;7.134;2024-03-08T01:28:50;21.33;;;16.60;;
71091;SDS011;58751;50.708;7.134;2024-03-08T01:31:15;22.17;;;17.33;;
71091;SDS011;58751;50.708;7.134;2024-03-08T01:33:41;23.90;;;17.43;;
71091;SDS011;58751;50.708;7.134;2024-03-08T01:36:08;22.30;;;17.15;;
71091;SDS011;58751;50.708;7.134;2024-03-08T01:38:34;24.67;;;17.80;;
71091;SDS011;58751;50.708;7.134;2024-03-08T01:40:59;21.47;;;16.97;;
71091;SDS011;58751;50.708;7.134;2024-03-08T01:43:25;19.87;;;15.97;;
71091;SDS011;58751;50.708;7.134;2024-03-08T01:45:51;20.15;;;15.85;;
71091;SDS011;58751;50.708;7.134;2024-03-08T01:48:16;19.93;;;15.90;;
71091;SDS011;58751;50.708;7.134;2024-03-08T01:50:43;20.60;;;15.70;;
71091;SDS011;58751;50.708;7.134;2024-03-08T01:53:09;21.63;;;17.33;;
71091;SDS011;58751;50.708;7.134;2024-03-08T01:55:35;21.20;;;15.10;;
71091;SDS011;58751;50.708;7.134;2024-03-08T01:58:01;22.63;;;17.83;;
71091;SDS011;58751;50.708;7.134;2024-03-08T02:00:26;23.33;;;16.87;;
71091;SDS011;58751;50.708;7.134;2024-03-08T02:02:53;22.43;;;15.80;;
71091;SDS011;58751;50.708;7.134;2024-03-08T02:05:19;21.70;;;15.30;;
71091;SDS011;58751;50.708;7.134;2024-03-08T02:07:44;22.37;;;15.50;;
71091;SDS011;58751;50.708;7.134;2024-03-08T02:10:11;22.63;;;16.57;;
71091;SDS011;58751;50.708;7.134;2024-03-08T02:12:37;23.30;;;17.60;;
71091;SDS011;58751;50.708;7.134;2024-03-08T02:15:02;19.80;;;15.53;;
71091;SDS011;58751;50.708;7.134;2024-03-08T02:17:28;32.77;;;20.27;;
71091;SDS011;58751;50.708;7.134;2024-03-08T02:19:53;38.70;;;26.93;;
71091;SDS011;58751;50.708;7.134;2024-03-08T02:22:20;41.60;;;22.43;;
71091;SDS011;58751;50.708;7.134;2024-03-08T02:24:45;22.30;;;16.42;;
71091;SDS011;58751;50.708;7.134;2024-03-08T02:27:11;22.30;;;16.70;;
71091;SDS011;58751;50.708;7.134;2024-03-08T02:29:36;24.40;;;18.13;;
71091;SDS011;58751;50.708;7.134;2024-03-08T02:32:01;21.40;;;15.30;;
71091;SDS011;58751;50.708;7.134;2024-03-08T02:34:27;22.70;;;16.83;;
71091;SDS011;58751;50.708;7.134;2024-03-08T02:36:52;22.93;;;16.30;;
71091;SDS011;58751;50.708;7.134;2024-03-08T02:39:19;22.70;;;16.70;;
71091;SDS011;58751;50.708;7.134;2024-03-08T02:41:44;20.10;;;16.77;;
71091;SDS011;58751;50.708;7.134;2024-03-08T02:44:10;22.77;;;18.83;;
71091;SDS011;58751;50.708;7.134;2024-03-08T02:46:35;20.10;;;15.53;;
71091;SDS011;58751;50.708;7.134;2024-03-08T02:49:01;20.53;;;16.43;;
71091;SDS011;58751;50.708;7.134;2024-03-08T02:51:26;27.37;;;19.37;;
71091;SDS011;58751;50.708;7.134;2024-03-08T02:53:51;23.50;;;16.03;;
71091;SDS011;58751;50.708;7.134;2024-03-08T02:56:18;21.63;;;15.73;;
71091;SDS011;58751;50.708;7.134;2024-03-08T02:58:43;20.73;;;16.60;;
71091;SDS011;58751;50.708;7.134;2024-03-08T03:01:09;21.30;;;15.60;;
71091;SDS011;58751;50.708;7.134;2024-03-08T03:03:34;21.10;;;15.90;;
71091;SDS011;58751;50.708;7.134;2024-03-08T03:05:59;23.03;;;16.20;;
71091;SDS011;58751;50.708;7.134;2024-03-08T03:08:25;21.70;;;17.33;;
71091;SDS011;58751;50.708;7.134;2024-03-08T03:10:50;20.83;;;16.47;;
71091;SDS011;58751;50.708;7.134;2024-03-08T03:13:17;23.83;;;16.13;;
71091;SDS011;58751;50.708;7.134;2024-03-08T03:15:42;25.77;;;16.65;;
71091;SDS011;58751;50.708;7.134;2024-03-08T03:18:08;25.80;;;17.93;;
71091;SDS011;58751;50.708;7.134;2024-03-08T03:20:33;24.03;;;17.20;;
71091;SDS011;58751;50.708;7.134;2024-03-08T03:22:58;19.33;;;15.60;;
71091;SDS011;58751;50.708;7.134;2024-03-08T03:25:24;21.70;;;17.57;;
71091;SDS011;58751;50.708;7.134;2024-03-08T03:27:49;22.90;;;16.10;;
71091;SDS011;58751;50.708;7.134;2024-03-08T03:30:16;23.97;;;16.73;;
71091;SDS011;58751;50.708;7.134;2024-03-08T03:32:41;21.17;;;16.95;;
71091;SDS011;58751;50.708;7.134;2024-03-08T03:35:07;25.20;;;18.70;;
71091;SDS011;58751;50.708;7.134;2024-03-08T03:37:32;20.70;;;15.83;;
71091;SDS011;58751;50.708;7.134;2024-03-08T03:39:58;23.10;;;16.33;;
71091;SDS011;58751;50.708;7.134;2024-03-08T03:42:23;24.97;;;16.87;;
71091;SDS011;58751;50.708;7.134;2024-03-08T03:44:49;25.67;;;17.60;;
71091;SDS011;58751;50.708;7.134;2024-03-08T03:47:15;21.10;;;15.70;;
71091;SDS011;58751;50.708;7.134;2024-03-08T03:49:41;28.83;;;17.67;;
71091;SDS011;58751;50.708;7.134;2024-03-08T03:52:06;28.60;;;18.57;;
71091;SDS011;58751;50.708;7.134;2024-03-08T03:54:32;25.43;;;17.83;;
71091;SDS011;58751;50.708;7.134;2024-03-08T03:56:57;23.40;;;16.40;;
71091;SDS011;58751;50.708;7.134;2024-03-08T03:59:22;21.30;;;14.97;;
71091;SDS011;58751;50.708;7.134;2024-03-08T04:01:48;23.10;;;17.30;;
71091;SDS011;58751;50.708;7.134;2024-03-08T04:04:14;21.90;;;15.07;;
71091;SDS011;58751;50.708;7.134;2024-03-08T04:06:40;24.10;;;17.15;;
71091;SDS011;58751;50.708;7.134;2024-03-08T04:09:05;25.60;;;16.87;;
71091;SDS011;58751;50.708;7.134;2024-03-08T04:11:31;25.67;;;17.17;;
71091;SDS011;58751;50.708;7.134;2024-03-08T04:13:56;26.23;;;17.90;;
71091;SDS011;58751;50.708;7.134;2024-03-08T04:16:21;26.30;;;17.60;;
71091;SDS011;58751;50.708;7.134;2024-03-08T04:18:47;22.37;;;17.40;;
71091;SDS011;58751;50.708;7.134;2024-03-08T04:21:13;23.10;;;16.67;;
71091;SDS011;58751;50.708;7.134;2024-03-08T04:23:39;21.45;;;16.67;;
71091;SDS011;58751;50.708;7.134;2024-03-08T04:26:04;28.93;;;18.50;;
71091;SDS011;58751;50.708;7.134;2024-03-08T04:28:29;23.50;;;17.10;;
71091;SDS011;58751;50.708;7.134;2024-03-08T04:30:55;26.60;;;17.30;;
71091;SDS011;58751;50.708;7.134;2024-03-08T04:33:20;24.47;;;15.90;;
71091;SDS011;58751;50.708;7.134;2024-03-08T04:35:46;24.10;;;16.80;;
71091;SDS011;58751;50.708;7.134;2024-03-08T04:38:12;26.50;;;16.13;;
71091;SDS011;58751;50.708;7.134;2024-03-08T04:40:38;24.90;;;18.33;;
71091;SDS011;58751;50.708;7.134;2024-03-08T04:43:03;26.60;;;19.50;;
71091;SDS011;58751;50.708;7.134;2024-03-08T04:45:29;22.20;;;16.27;;
71091;SDS011;58751;50.708;7.134;2024-03-08T04:47:54;25.47;;;17.37;;
71091;SDS011;58751;50.708;7.134;2024-03-08T04:50:20;27.17;;;16.70;;
71091;SDS011;58751;50.708;7.134;2024-03-08T04:52:45;23.23;;;16.93;;
71091;SDS011;58751;50.708;7.134;2024-03-08T04:55:12;25.63;;;17.20;;
71091;SDS011;58751;50.708;7.134;2024-03-08T04:57:37;21.98;;;16.23;;
71091;SDS011;58751;50.708;7.134;2024-03-08T05:00:02;26.40;;;18.40;;
71091;SDS011;58751;50.708;7.134;2024-03-08T05:02:28;22.30;;;16.80;;
71091;SDS011;58751;50.708;7.134;2024-03-08T05:04:54;21.73;;;16.40;;
71091;SDS011;58751;50.708;7.134;2024-03-08T05:07:19;24.83;;;18.73;;
71091;SDS011;58751;50.708;7.134;2024-03-08T05:09:44;23.80;;;16.60;;
71091;SDS011;58751;50.708;7.134;2024-03-08T05:12:11;28.13;;;17.20;;
71091;SDS011;58751;50.708;7.134;2024-03-08T05:14:36;21.73;;;17.98;;
71091;SDS011;58751;50.708;7.134;2024-03-08T05:17:02;24.60;;;17.60;;
71091;SDS011;58751;50.708;7.134;2024-03-08T05:19:27;26.43;;;17.67;;
71091;SDS011;58751;50.708;7.134;2024-03-08T05:21:53;24.47;;;17.10;;
71091;SDS011;58751;50.708;7.134;2024-03-08T05:24:18;25.40;;;16.57;;
71091;SDS011;58751;50.708;7.134;2024-03-08T05:26:43;27.13;;;18.40;;
71091;SDS011;58751;50.708;7.134;2024-03-08T05:29:10;23.33;;;18.70;;
71091;SDS011;58751;50.708;7.134;2024-03-08T05:31:36;24.08;;;18.23;;
71091;SDS011;58751;50.708;7.134;2024-03-08T05:34:04;22.52;;;16.85;;
71091;SDS011;58751;50.708;7.134;2024-03-08T05:36:29;26.13;;;18.03;;
71091;SDS011;58751;50.708;7.134;2024-03-08T05:38:55;21.73;;;17.27;;
71091;SDS011;58751;50.708;7.134;2024-03-08T05:41:20;27.70;;;19.27;;
71091;SDS011;58751;50.708;7.134;2024-03-08T05:43:45;28.13;;;19.03;;
71091;SDS011;58751;50.708;7.134;2024-03-08T05:46:14;27.50;;;17.70;;
71091;SDS011;58751;50.708;7.134;2024-03-08T05:48:40;24.15;;;17.85;;
71091;SDS011;58751;50.708;7.134;2024-03-08T05:51:05;27.10;;;17.70;;
71091;SDS011;58751;50.708;7.134;2024-03-08T05:53:33;26.40;;;18.07;;
71091;SDS011;58751;50.708;7.134;2024-03-08T05:56:01;27.13;;;17.10;;
71091;SDS011;58751;50.708;7.134;2024-03-08T05:58:27;25.83;;;17.83;;
71091;SDS011;58751;50.708;7.134;2024-03-08T06:00:52;25.27;;;18.63;;
71091;SDS011;58751;50.708;7.134;2024-03-08T06:03:19;22.33;;;16.90;;
71091;SDS011;58751;50.708;7.134;2024-03-08T06:05:44;27.63;;;17.73;;
71091;SDS011;58751;50.708;7.134;2024-03-08T06:08:10;24.27;;;16.90;;
71091;SDS011;58751;50.708;7.134;2024-03-08T06:10:35;28.80;;;19.73;;
71091;SDS011;58751;50.708;7.134;2024-03-08T06:13:01;30.50;;;19.70;;
71091;SDS011;58751;50.708;7.134;2024-03-08T06:15:26;30.17;;;18.80;;
71091;SDS011;58751;50.708;7.134;2024-03-08T06:17:51;29.63;;;19.53;;
71091;SDS011;58751;50.708;7.134;2024-03-08T06:20:18;21.00;;;16.93;;
71091;SDS011;58751;50.708;7.134;2024-03-08T06:22:43;26.33;;;17.50;;
71091;SDS011;58751;50.708;7.134;2024-03-08T06:25:09;25.73;;;16.77;;
71091;SDS011;58751;50.708;7.134;2024-03-08T06:27:34;29.50;;;20.17;;
71091;SDS011;58751;50.708;7.134;2024-03-08T06:30:00;22.37;;;15.63;;
71091;SDS011;58751;50.708;7.134;2024-03-08T06:32:25;28.60;;;18.23;;
71091;SDS011;58751;50.708;7.134;2024-03-08T06:34:50;27.33;;;18.77;;
71091;SDS011;58751;50.708;7.134;2024-03-08T06:37:17;25.50;;;18.23;;
71091;SDS011;58751;50.708;7.134;2024-03-08T06:39:43;27.50;;;19.08;;
71091;SDS011;58751;50.708;7.134;2024-03-08T06:42:08;26.23;;;18.90;;
71091;SDS011;58751;50.708;7.134;2024-03-08T06:44:33;26.97;;;18.13;;
71091;SDS011;58751;50.708;7.134;2024-03-08T06:46:59;25.20;;;17.50;;
71091;SDS011;58751;50.708;7.134;2024-03-08T06:49:24;23.57;;;17.97;;
71091;SDS011;58751;50.708;7.134;2024-03-08T06:51:49;25.20;;;17.90;;
71091;SDS011;58751;50.708;7.134;2024-03-08T06:54:16;26.57;;;18.93;;
71091;SDS011;58751;50.708;7.134;2024-03-08T06:56:41;22.80;;;17.60;;
71091;SDS011;58751;50.708;7.134;2024-03-08T06:59:07;23.33;;;17.93;;
71091;SDS011;58751;50.708;7.134;2024-03-08T07:01:32;20.70;;;17.27;;
71091;SDS011;58751;50.708;7.134;2024-03-08T07:03:58;21.73;;;17.63;;
71091;SDS011;58751;50.708;7.134;2024-03-08T07:06:23;23.50;;;18.40;;
71091;SDS011;58751;50.708;7.134;2024-03-08T07:08:48;24.70;;;17.50;;
71091;SDS011;58751;50.708;7.134;2024-03-08T07:11:15;20.20;;;17.43;;
71091;SDS011;58751;50.708;7.134;2024-03-08T07:13:40;24.00;;;17.88;;
71091;SDS011;58751;50.708;7.134;2024-03-08T07:16:06;22.23;;;17.80;;
71091;SDS011;58751;50.708;7.134;2024-03-08T07:18:31;22.50;;;18.13;;
71091;SDS011;58751;50.708;7.134;2024-03-08T07:20:57;20.20;;;17.87;;
71091;SDS011;58751;50.708;7.134;2024-03-08T07:23:22;20.83;;;17.87;;
71091;SDS011;58751;50.708;7.134;2024-03-08T07:25:48;23.20;;;18.87;;
71091;SDS011;58751;50.708;7.134;2024-03-08T07:28:14;21.93;;;17.80;;
71091;SDS011;58751;50.708;7.134;2024-03-08T07:30:40;20.92;;;18.27;;
71091;SDS011;58751;50.708;7.134;2024-03-08T07:33:05;20.47;;;17.87;;
71091;SDS011;58751;50.708;7.134;2024-03-08T07:35:31;20.83;;;18.50;;
71091;SDS011;58751;50.708;7.134;2024-03-08T07:37:56;19.77;;;17.70;;
71091;SDS011;58751;50.708;7.134;2024-03-08T07:40:22;22.23;;;18.53;;
71091;SDS011;58751;50.708;7.134;2024-03-08T07:42:47;21.93;;;17.63;;
71091;SDS011;58751;50.708;7.134;2024-03-08T07:45:14;19.33;;;17.13;;
71091;SDS011;58751;50.708;7.134;2024-03-08T07:47:39;20.60;;;18.50;;
71091;SDS011;58751;50.708;7.134;2024-03-08T07:50:05;19.83;;;17.73;;
71091;SDS011;58751;50.708;7.134;2024-03-08T07:52:31;19.93;;;17.33;;
71091;SDS011;58751;50.708;7.134;2024-03-08T07:54:56;21.53;;;18.40;;
71091;SDS011;58751;50.708;7.134;2024-03-08T07:57:22;19.77;;;17.40;;
71091;SDS011;58751;50.708;7.134;2024-03-08T07:59:47;20.87;;;16.80;;
71091;SDS011;58751;50.708;7.134;2024-03-08T08:02:14;19.70;;;17.70;;
71091;SDS011;58751;50.708;7.134;2024-03-08T08:04:39;19.20;;;17.27;;
71091;SDS011;58751;50.708;7.134;2024-03-08T08:07:05;20.17;;;17.43;;
71091;SDS011;58751;50.708;7.134;2024-03-08T08:09:30;17.90;;;16.07;;
71091;SDS011;58751;50.708;7.134;2024-03-08T08:11:55;19.80;;;17.43;;
71091;SDS011;58751;50.708;7.134;2024-03-08T08:14:21;19.90;;;17.80;;
71091;SDS011;58751;50.708;7.134;2024-03-08T08:16:46;22.33;;;19.27;;
71091;SDS011;58751;50.708;7.134;2024-03-08T08:19:13;18.87;;;16.97;;
71091;SDS011;58751;50.708;7.134;2024-03-08T08:21:39;19.07;;;17.17;;
71091;SDS011;58751;50.708;7.134;2024-03-08T08:24:04;19.53;;;17.47;;
71091;SDS011;58751;50.708;7.134;2024-03-08T08:26:30;18.93;;;16.93;;
71091;SDS011;58751;50.708;7.134;2024-03-08T08:28:56;18.80;;;16.90;;
71091;SDS011;58751;50.708;7.134;2024-03-08T08:31:21;18.73;;;16.80;;
71091;SDS011;58751;50.708;7.134;2024-03-08T08:33:47;18.47;;;16.60;;
71091;SDS011;58751;50.708;7.134;2024-03-08T08:36:13;20.07;;;18.07;;
71091;SDS011;58751;50.708;7.134;2024-03-08T08:38:39;24.43;;;17.90;;
71091;SDS011;58751;50.708;7.134;2024-03-08T08:41:04;18.43;;;16.60;;
71091;SDS011;58751;50.708;7.134;2024-03-08T08:43:30;17.10;;;15.30;;
71091;SDS011;58751;50.708;7.134;2024-03-08T08:45:55;18.17;;;16.20;;
71091;SDS011;58751;50.708;7.134;2024-03-08T08:48:20;19.83;;;17.80;;
71091;SDS011;58751;50.708;7.134;2024-03-08T08:50:46;17.17;;;15.47;;
71091;SDS011;58751;50.708;7.134;2024-03-08T08:53:12;17.80;;;16.00;;
71091;SDS011;58751;50.708;7.134;2024-03-08T08:55:39;18.57;;;16.53;;
71091;SDS011;58751;50.708;7.134;2024-03-08T08:58:05;17.63;;;15.80;;
71091;SDS011;58751;50.708;7.134;2024-03-08T09:00:30;17.63;;;15.90;;
71091;SDS011;58751;50.708;7.134;2024-03-08T09:02:55;18.33;;;15.93;;
71091;SDS011;58751;50.708;7.134;2024-03-08T09:05:21;19.33;;;17.20;;
71091;SDS011;58751;50.708;7.134;2024-03-08T09:07:46;18.10;;;16.23;;
71091;SDS011;58751;50.708;7.134;2024-03-08T09:10:13;18.00;;;16.10;;
71091;SDS011;58751;50.708;7.134;2024-03-08T09:12:38;17.37;;;15.40;;
71091;SDS011;58751;50.708;7.134;2024-03-08T09:15:04;18.87;;;16.50;;
71091;SDS011;58751;50.708;7.134;2024-03-08T09:17:31;18.33;;;16.40;;
71091;SDS011;58751;50.708;7.134;2024-03-08T09:19:56;18.80;;;16.70;;
71091;SDS011;58751;50.708;7.134;2024-03-08T09:22:21;17.60;;;15.77;;
71091;SDS011;58751;50.708;7.134;2024-03-08T09:24:47;15.63;;;13.97;;
71091;SDS011;58751;50.708;7.134;2024-03-08T09:27:13;15.30;;;13.70;;
71091;SDS011;58751;50.708;7.134;2024-03-08T09:29:39;15.20;;;13.60;;
71091;SDS011;58751;50.708;7.134;2024-03-08T09:32:04;16.07;;;14.20;;
71091;SDS011;58751;50.708;7.134;2024-03-08T09:34:30;16.80;;;15.10;;
71091;SDS011;58751;50.708;7.134;2024-03-08T09:36:55;14.87;;;13.27;;
71091;SDS011;58751;50.708;7.134;2024-03-08T09:39:20;15.03;;;13.53;;
71091;SDS011;58751;50.708;7.134;2024-03-08T09:41:46;18.30;;;12.83;;
71091;SDS011;58751;50.708;7.134;2024-03-08T09:44:13;13.07;;;11.77;;
71091;SDS011;58751;50.708;7.134;2024-03-08T09:46:38;15.03;;;13.53;;
71091;SDS011;58751;50.708;7.134;2024-03-08T09:49:04;16.17;;;13.10;;
71091;SDS011;58751;50.708;7.134;2024-03-08T09:51:29;14.70;;;11.90;;
71091;SDS011;58751;50.708;7.134;2024-03-08T09:53:56;13.23;;;11.82;;
71091;SDS011;58751;50.708;7.134;2024-03-08T09:56:22;11.87;;;10.43;;
71091;SDS011;58751;50.708;7.134;2024-03-08T09:58:48;15.03;;;13.30;;
71091;SDS011;58751;50.708;7.134;2024-03-08T10:01:14;16.57;;;12.90;;
71091;SDS011;58751;50.708;7.134;2024-03-08T10:03:40;19.65;;;11.68;;
71091;SDS011;58751;50.708;7.134;2024-03-08T10:06:06;14.93;;;11.40;;
71091;SDS011;58751;50.708;7.134;2024-03-08T10:08:31;13.90;;;10.75;;
71091;SDS011;58751;50.708;7.134;2024-03-08T10:10:57;13.80;;;11.30;;
71091;SDS011;58751;50.708;7.134;2024-03-08T10:13:22;13.30;;;10.40;;
71091;SDS011;58751;50.708;7.134;2024-03-08T10:15:47;14.13;;;12.63;;
71091;SDS011;58751;50.708;7.134;2024-03-08T10:18:14;12.60;;;11.40;;
71091;SDS011;58751;50.708;7.134;2024-03-08T10:20:40;12.75;;;11.45;;
71091;SDS011;58751;50.708;7.134;2024-03-08T10:23:05;12.07;;;10.90;;
71091;SDS011;58751;50.708;7.134;2024-03-08T10:25:31;11.50;;;10.23;;
71091;SDS011;58751;50.708;7.134;2024-03-08T10:27:56;13.40;;;12.10;;
71091;SDS011;58751;50.708;7.134;2024-03-08T10:30:22;12.20;;;11.00;;
71091;SDS011;58751;50.708;7.134;2024-03-08T10:32:47;11.37;;;10.17;;
71091;SDS011;58751;50.708;7.134;2024-03-08T10:35:14;13.00;;;11.57;;
71091;SDS011;58751;50.708;7.134;2024-03-08T10:37:42;12.30;;;11.10;;
71091;SDS011;58751;50.708;7.134;2024-03-08T10:40:13;12.00;;;10.80;;
71091;SDS011;58751;50.708;7.134;2024-03-08T10:42:44;14.93;;;13.40;;
71091;SDS011;58751;50.708;7.134;2024-03-08T10:45:18;14.55;;;11.82;;
71091;SDS011;58751;50.708;7.134;2024-03-08T10:47:49;12.45;;;11.15;;
71091;SDS011;58751;50.708;7.134;2024-03-08T10:50:17;13.57;;;12.17;;
71091;SDS011;58751;50.708;7.134;2024-03-08T10:52:43;12.80;;;11.50;;
71091;SDS011;58751;50.708;7.134;2024-03-08T10:55:09;11.97;;;10.87;;
71091;SDS011;58751;50.708;7.134;2024-03-08T10:57:35;12.77;;;11.03;;
71091;SDS011;58751;50.708;7.134;2024-03-08T11:00:00;12.37;;;11.07;;
71091;SDS011;58751;50.708;7.134;2024-03-08T11:02:27;12.67;;;11.37;;
71091;SDS011;58751;50.708;7.134;2024-03-08T11:04:52;17.43;;;11.73;;
71091;SDS011;58751;50.708;7.134;2024-03-08T11:07:19;11.53;;;10.03;;
71091;SDS011;58751;50.708;7.134;2024-03-08T11:09:45;13.73;;;12.35;;
71091;SDS011;58751;50.708;7.134;2024-03-08T11:12:19;13.50;;;11.00;;
71091;SDS011;58751;50.708;7.134;2024-03-08T11:14:46;15.07;;;11.03;;
71091;SDS011;58751;50.708;7.134;2024-03-08T11:17:13;12.65;;;11.35;;
71091;SDS011;58751;50.708;7.134;2024-03-08T11:19:38;13.80;;;11.50;;
71091;SDS011;58751;50.708;7.134;2024-03-08T11:22:03;13.10;;;11.80;;
71091;SDS011;58751;50.708;7.134;2024-03-08T11:24:37;13.27;;;12.07;;
71091;SDS011;58751;50.708;7.134;2024-03-08T11:27:03;13.07;;;11.67;;
71091;SDS011;58751;50.708;7.134;2024-03-08T11:29:32;12.23;;;11.07;;
71091;SDS011;58751;50.708;7.134;2024-03-08T11:32:03;12.87;;;11.47;;
71091;SDS011;58751;50.708;7.134;2024-03-08T11:34:28;10.70;;;9.70;;
71091;SDS011;58751;50.708;7.134;2024-03-08T11:36:54;13.67;;;9.70;;
71091;SDS011;58751;50.708;7.134;2024-03-08T11:39:19;12.63;;;11.33;;
71091;SDS011;58751;50.708;7.134;2024-03-08T11:41:46;11.50;;;10.30;;
71091;SDS011;58751;50.708;7.134;2024-03-08T11:44:11;12.17;;;10.97;;
71091;SDS011;58751;50.708;7.134;2024-03-08T11:46:37;11.90;;;10.70;;
71091;SDS011;58751;50.708;7.134;2024-03-08T11:49:02;11.37;;;9.90;;
71091;SDS011;58751;50.708;7.134;2024-03-08T11:51:27;10.97;;;9.80;;
71091;SDS011;58751;50.708;7.134;2024-03-08T11:53:53;11.03;;;9.93;;
71091;SDS011;58751;50.708;7.134;2024-03-08T11:56:18;12.83;;;11.23;;
71091;SDS011;58751;50.708;7.134;2024-03-08T11:58:52;10.87;;;9.77;;
71091;SDS011;58751;50.708;7.134;2024-03-08T12:01:18;12.60;;;10.73;;
71091;SDS011;58751;50.708;7.134;2024-03-08T12:03:43;12.87;;;11.57;;
71091;SDS011;58751;50.708;7.134;2024-03-08T12:06:08;11.90;;;10.73;;
71091;SDS011;58751;50.708;7.134;2024-03-08T12:08:34;11.33;;;10.13;;
71091;SDS011;58751;50.708;7.134;2024-03-08T12:11:00;13.67;;;11.40;;
71091;SDS011;58751;50.708;7.134;2024-03-08T12:13:25;10.67;;;9.53;;
71091;SDS011;58751;50.708;7.134;2024-03-08T12:15:52;10.53;;;9.27;;
71091;SDS011;58751;50.708;7.134;2024-03-08T12:18:18;11.30;;;9.73;;
71091;SDS011;58751;50.708;7.134;2024-03-08T12:20:43;11.43;;;10.37;;
71091;SDS011;58751;50.708;7.134;2024-03-08T12:23:13;13.00;;;10.33;;
71091;SDS011;58751;50.708;7.134;2024-03-08T12:25:39;11.07;;;10.00;;
71091;SDS011;58751;50.708;7.134;2024-03-08T12:28:07;11.23;;;10.17;;
71091;SDS011;58751;50.708;7.134;2024-03-08T12:30:33;12.33;;;11.07;;
71091;SDS011;58751;50.708;7.134;2024-03-08T12:33:00;12.03;;;10.40;;
71091;SDS011;58751;50.708;7.134;2024-03-08T12:35:25;11.67;;;10.53;;
71091;SDS011;58751;50.708;7.134;2024-03-08T12:37:52;13.20;;;11.03;;
71091;SDS011;58751;50.708;7.134;2024-03-08T12:40:18;11.23;;;10.13;;
71091;SDS011;58751;50.708;7.134;2024-03-08T12:42:44;12.43;;;11.13;;
71091;SDS011;58751;50.708;7.134;2024-03-08T12:45:09;12.80;;;10.90;;
71091;SDS011;58751;50.708;7.134;2024-03-08T12:47:35;12.90;;;11.60;;
71091;SDS011;58751;50.708;7.134;2024-03-08T12:50:02;14.33;;;11.03;;
71091;SDS011;58751;50.708;7.134;2024-03-08T12:52:27;13.13;;;11.40;;
71091;SDS011;58751;50.708;7.134;2024-03-08T12:54:53;11.80;;;10.70;;
71091;SDS011;58751;50.708;7.134;2024-03-08T12:57:18;11.50;;;10.23;;
71091;SDS011;58751;50.708;7.134;2024-03-08T12:59:44;12.23;;;11.13;;
71091;SDS011;58751;50.708;7.134;2024-03-08T13:02:09;11.00;;;9.27;;
71091;SDS011;58751;50.708;7.134;2024-03-08T13:04:35;10.80;;;9.70;;
71091;SDS011;58751;50.708;7.134;2024-03-08T13:07:01;14.93;;;10.87;;
71091;SDS011;58751;50.708;7.134;2024-03-08T13:09:27;11.38;;;10.27;;
71091;SDS011;58751;50.708;7.134;2024-03-08T13:11:52;11.80;;;10.40;;
71091;SDS011;58751;50.708;7.134;2024-03-08T13:14:17;11.63;;;10.53;;
71091;SDS011;58751;50.708;7.134;2024-03-08T13:16:43;10.97;;;9.83;;
71091;SDS011;58751;50.708;7.134;2024-03-08T13:19:08;12.23;;;10.07;;
71091;SDS011;58751;50.708;7.134;2024-03-08T13:21:34;10.70;;;9.57;;
71091;SDS011;58751;50.708;7.134;2024-03-08T13:24:00;12.03;;;10.23;;
71091;SDS011;58751;50.708;7.134;2024-03-08T13:26:26;13.50;;;10.73;;
71091;SDS011;58751;50.708;7.134;2024-03-08T13:28:51;10.80;;;9.67;;
71091;SDS011;58751;50.708;7.134;2024-03-08T13:31:16;11.70;;;10.50;;
71091;SDS011;58751;50.708;7.134;2024-03-08T13:33:42;11.97;;;10.77;;
71091;SDS011;58751;50.708;7.134;2024-03-08T13:36:07;10.20;;;9.10;;
71091;SDS011;58751;50.708;7.134;2024-03-08T13:38:33;10.97;;;9.90;;
71091;SDS011;58751;50.708;7.134;2024-03-08T13:41:00;12.20;;;10.37;;
71091;SDS011;58751;50.708;7.134;2024-03-08T13:43:25;10.52;;;9.52;;
71091;SDS011;58751;50.708;7.134;2024-03-08T13:45:50;13.60;;;11.63;;
71091;SDS011;58751;50.708;7.134;2024-03-08T13:48:16;11.67;;;10.43;;
71091;SDS011;58751;50.708;7.134;2024-03-08T13:50:41;12.83;;;10.90;;
71091;SDS011;58751;50.708;7.134;2024-03-08T13:53:07;11.87;;;10.57;;
71091;SDS011;58751;50.708;7.134;2024-03-08T13:55:32;11.77;;;10.60;;
71091;SDS011;58751;50.708;7.134;2024-03-08T13:57:59;11.87;;;10.67;;
71091;SDS011;58751;50.708;7.134;2024-03-08T14:00:24;10.00;;;9.00;;
71091;SDS011;58751;50.708;7.134;2024-03-08T14:02:50;13.07;;;9.63;;
71091;SDS011;58751;50.708;7.134;2024-03-08T14:05:15;11.30;;;10.10;;
71091;SDS011;58751;50.708;7.134;2024-03-08T14:07:41;11.03;;;9.93;;
71091;SDS011;58751;50.708;7.134;2024-03-08T14:10:06;13.60;;;9.87;;
71091;SDS011;58751;50.708;7.134;2024-03-08T14:12:32;10.73;;;9.63;;
71091;SDS011;58751;50.708;7.134;2024-03-08T14:14:59;12.80;;;10.87;;